الصفحة الرئيسية
METAR-TAF:

METAR-TAF

مطار :

مطار مورتالا محمد الدولي

لاغوس, نيجيريا

دائرة عرض: 06-35N, خط طول: 003-20E, ارتفاع: 40 متر

مراقبة الطقس الحالي

تاريخ ووقت الإصدار 1ساعة و 4 دقيقة قبل الساعة 17:00UTC
ريح 9 عقدة من الجنوب/الجنوب الغربي
درجة الحرارة 28°درجة مئوية
الرطوبة 74%
ضغط 1014 hPa
الرؤية 10 كم أو أكثر
غيوم قليلة على ارتفاع 1200 قدم

METAR: DNMM 161700Z 20009KT 9999 FEW012 28/23 Q1014 NOSIG

زمن: 19:04 (18:04 UTC)

توقعات

تاريخ ووقت الإصدار 2ساعات و 9 دقيقة قبل الساعة 15:55UTC
التوقعات صالحة من16 الساعة 18 UTC إلى 17 الساعة 24 UTC
ريح 2 عقدةمن اتجاهات متغيرة
الرؤية 10 كم أو أكثر
غيوم قليلة على ارتفاع 900 قدم
نظرية الاحتمالات 30% :
مؤقت
من 17 الساعة 01 UTC إلى 17 الساعة 06 UTC
الرؤية: 5000 متر
غيوم مفككة على ارتفاع 800 قدم
مطر خفيف
أصبح
من 17 الساعة 08 UTC إلى 17 الساعة 10 UTC
ريح 2 عقدةمن اتجاهات متغيرة
الرؤية 10 كم أو أكثر
غيوم مفككة على ارتفاع 1000 قدم
غيوم قليلة على ارتفاع 2000 قدم, مزنة ركامية.
غيوم متفرقة على ارتفاع 900 قدم
مؤقت
من 16 الساعة 22 UTC إلى 17 الساعة 04 UTC
غيوم متفرقة على ارتفاع 900 قدم
غيوم قليلة على ارتفاع 2000 قدم, مزنة ركامية.
عاصفة رعدية
نظرية الاحتمالات 30%
من 17 الساعة 00 UTC إلى 17 الساعة 04 UTC
الرؤية: 5000 متر
غيوم مفككة على ارتفاع 800 قدم
غيوم قليلة على ارتفاع 1900 قدم, مزنة ركامية.
عاصفة رعدية, مطر خفيف
مؤقت
من 17 الساعة 05 UTC إلى 17 الساعة 07 UTC
الرؤية: 3000 متر
غشاء
أصبح
من 17 الساعة 08 UTC إلى 17 الساعة 10 UTC
ريح 10 عقدة من الجنوب الغربي
غيوم مفككة على ارتفاع 1100 قدم
غيوم قليلة على ارتفاع 2000 قدم, مزنة ركامية.

TAF: DNMM 161555Z 1618/1724 VRB02KT 9999 FEW009 PROB30 TEMPO 1701/1706 5000 -RA BKN008 BECMG 1708/1710 21010KT BKN010 FEW020CB DNIB 161555Z 1618/1724 VRB02KT 9999 SCT009 TEMPO 1622/1704 TS SCT009 FEW020CB PROB30 1700/1704 5000 -TSRA BKN008 FEW019CB TEMPO 1705/1707 3000 BR BECMG 1708/1710 22010KT BKN011 FEW020CB

أرصاد الطقس والتوقعات من أكثر من 4000 مطار (تقارير الطقس للمطار METAR والتنبؤ بالطقس بالمطارTAF).

المحطات المتاحة هي النقط الصفراء والحمراء على الخريطة.

حرك المؤشر فوق النقطة لمعرفة اسم المحطة.

ثم انقر لمعرفة أرصاد وتوقعات الطقس.

لتغيير الخارطة: اضغط على الأزرار الخضراء مع رمز الصليب الأسود للتكبير. على الزر الأخضر مع شرطة للتصغير، أو على الأسهم الخضراء للخرائط المجاورة.


METAR-TAF: